Time;durP1;ratioP1;P1;durP2;ratioP2;P2;SDS_P1;SDS_P2;PMS_P1;PMS_P2;Temp;Humidity;BMP_temperature;BMP_pressure;BME280_temperature;BME280_humidity;BME280_pressure;Samples;Min_cycle;Max_cycle;Signal;HPM_P1;HPM_P2
2022/12/20 01:58:08;;;;;;;8.10;4.92;;;;;;;-6.97;100.00;101572.53;1840844;75;26841;-64
2022/12/20 02:04:16;;;;;;;7.72;5.55;;;;;;;-6.49;100.00;101577.45;1814976;77;21922;-63
2022/12/20 02:06:44;;;;;;;10.90;6.92;;;;;;;-6.27;100.00;101566.77;1805912;78;21498;-63
2022/12/20 02:09:12;;;;;;;9.75;6.55;;;;;;;-6.14;100.00;101563.17;1802497;78;20954;-64
2022/12/20 02:12:15;;;;;;;11.70;6.90;;;;;;;-6.02;100.00;101553.62;1804191;78;21485;-64
2022/12/20 02:15:23;;;;;;;10.45;6.58;;;;;;;-5.94;100.00;101537.36;1821583;78;21410;-62
2022/12/20 02:17:55;;;;;;;11.00;7.10;;;;;;;-5.85;100.00;101526.73;1810007;77;21872;-62
2022/12/20 02:20:58;;;;;;;9.40;6.50;;;;;;;-5.79;100.00;101508.70;1809853;78;21509;-63
2022/12/20 02:24:05;;;;;;;10.70;6.33;;;;;;;-5.72;100.00;101504.80;1821688;77;21561;-64
2022/12/20 02:26:38;;;;;;;;;;;;;;;-5.63;100.00;101506.58;1822628;77;21765;-64
2022/12/20 02:29:39;;;;;;;7.97;5.05;;;;;;;-5.64;100.00;101494.95;1804097;78;20468;-63
2022/12/20 02:32:16;;;;;;;7.50;5.28;;;;;;;-5.54;100.00;101493.33;1816849;78;21821;-64
2022/12/20 02:34:43;;;;;;;8.43;5.25;;;;;;;-5.50;100.00;101483.34;1810919;78;21528;-63
2022/12/20 02:37:10;;;;;;;7.17;4.22;;;;;;;-5.49;100.00;101479.95;1823294;78;21687;-62
2022/12/20 02:39:38;;;;;;;7.70;5.20;;;;;;;-5.43;100.00;101477.23;1819299;78;21561;-61
2022/12/20 02:42:10;;;;;;;6.72;4.83;;;;;;;-5.44;100.00;101470.33;1815731;77;21588;-62
2022/12/20 02:47:41;;;;;;;6.95;4.95;;;;;;;-5.36;100.00;101469.06;1806357;77;21513;-61
2022/12/20 02:50:08;;;;;;;8.50;5.10;;;;;;;-5.33;100.00;101470.48;1763772;78;21517;-61
2022/12/20 02:52:36;;;;;;;7.03;5.10;;;;;;;-5.29;100.00;101464.31;1790067;78;21512;-61
2022/12/20 02:55:03;;;;;;;7.78;4.87;;;;;;;-5.22;100.00;101460.36;1769967;78;21663;-62
2022/12/20 02:57:51;;;;;;;8.80;5.10;;;;;;;-5.19;100.00;101444.27;1792729;77;21782;-62
2022/12/20 03:00:19;;;;;;;6.70;4.17;;;;;;;-5.16;100.00;101449.14;1815162;77;21528;-62
2022/12/20 03:05:32;;;;;;;5.70;4.53;;;;;;;-5.11;100.00;101437.41;1798144;78;21577;-62
2022/12/20 03:08:00;;;;;;;5.72;4.42;;;;;;;-5.09;100.00;101425.94;1825969;78;21569;-62
2022/12/20 03:10:27;;;;;;;8.00;5.05;;;;;;;-5.05;100.00;101429.54;1824037;78;22095;-62
2022/12/20 03:12:53;;;;;;;7.33;5.00;;;;;;;-5.06;100.00;101423.54;1807015;77;20954;-62
2022/12/20 03:15:22;;;;;;;6.97;5.08;;;;;;;-5.10;100.00;101422.50;1811604;77;21482;-62
2022/12/20 03:17:50;;;;;;;7.78;4.20;;;;;;;-5.06;100.00;101412.00;1773613;78;21589;-62
2022/12/20 03:20:16;;;;;;;4.87;3.93;;;;;;;-5.01;100.00;101406.69;1812502;78;21585;-62
2022/12/20 03:22:43;;;;;;;5.83;5.03;;;;;;;-4.99;100.00;101414.44;1804743;78;21732;-63
2022/12/20 03:25:10;;;;;;;6.20;4.55;;;;;;;-4.97;100.00;101407.69;1815396;77;21695;-62
2022/12/20 03:27:37;;;;;;;;;;;;;;;-4.93;100.00;101405.37;1803758;78;21557;-62
2022/12/20 03:30:05;;;;;;;6.33;4.92;;;;;;;-4.99;100.00;101396.09;1810454;78;20432;-62
2022/12/20 03:32:34;;;;;;;5.20;4.08;;;;;;;-4.92;100.00;101390.43;1818074;77;21502;-62
2022/12/20 03:35:01;;;;;;;5.20;4.17;;;;;;;-4.87;100.00;101385.53;1817393;78;21932;-62
2022/12/20 03:37:29;;;;;;;4.60;3.83;;;;;;;-4.75;100.00;101378.81;1804551;78;21565;-62
2022/12/20 03:39:56;;;;;;;6.45;4.35;;;;;;;-4.78;100.00;101375.70;1820007;77;21558;-62
2022/12/20 03:42:23;;;;;;;5.63;3.90;;;;;;;-4.71;100.00;101368.78;1778492;78;21606;-62
2022/12/20 03:44:49;;;;;;;6.20;4.78;;;;;;;-4.68;100.00;101365.45;1820792;77;21592;-61
2022/12/20 03:47:16;;;;;;;7.07;4.30;;;;;;;-4.61;100.00;101362.37;1815066;78;21861;-62
2022/12/20 06:38:24;;;;;;;4.70;3.67;;;;;;;-4.03;100.00;101084.44;1831961;74;26680;-56
2022/12/20 06:40:51;;;;;;;6.67;4.42;;;;;;;-3.78;100.00;101074.30;1812446;75;21442;-56
2022/12/20 06:43:57;;;;;;;3.83;2.97;;;;;;;-3.49;100.00;101074.52;1772711;79;21883;-59
2022/12/20 06:46:26;;;;;;;5.40;4.00;;;;;;;-3.27;100.00;101068.47;1739691;80;21548;-55
2022/12/20 06:48:55;;;;;;;4.55;3.47;;;;;;;-3.09;100.00;101082.38;1690715;82;21518;-57
2022/12/20 06:51:22;;;;;;;6.62;3.75;;;;;;;-2.94;100.00;101081.66;1720935;80;21498;-56
2022/12/20 06:53:49;;;;;;;4.40;3.47;;;;;;;-2.78;100.00;101071.47;1748180;79;21509;-56
2022/12/20 06:56:16;;;;;;;6.17;3.83;;;;;;;-2.63;100.00;101072.83;1746235;79;22180;-57
2022/12/20 06:58:45;;;;;;;8.98;4.08;;;;;;;-2.52;100.00;101057.70;1819060;77;21542;-56
2022/12/20 07:01:12;;;;;;;5.22;4.10;;;;;;;-2.45;100.00;101068.29;1786911;76;21561;-57
2022/12/20 07:03:39;;;;;;;4.45;3.30;;;;;;;-2.37;100.00;101078.84;1818504;76;21494;-56
2022/12/20 07:06:06;;;;;;;4.42;3.37;;;;;;;-2.22;100.00;101057.85;1792641;76;21463;-57
2022/12/20 07:08:33;;;;;;;;;;;;;;;-2.22;100.00;101057.85;1827239;77;21872;-57
2022/12/20 07:11:05;;;;;;;4.42;3.37;;;;;;;-2.24;100.00;101051.74;1795164;77;20426;-61
2022/12/20 07:13:32;;;;;;;4.85;4.00;;;;;;;-2.16;100.00;101047.73;1757897;78;21403;-56
2022/12/20 07:16:00;;;;;;;3.75;3.35;;;;;;;-2.09;100.00;101046.20;1737752;80;20985;-56
2022/12/20 07:18:27;;;;;;;7.28;4.78;;;;;;;-2.05;100.00;101039.05;1751803;79;21491;-56
2022/12/20 07:20:54;;;;;;;7.20;3.95;;;;;;;-2.00;100.00;101020.31;1802938;77;21904;-57
2022/12/20 07:23:21;;;;;;;10.20;9.25;;;;;;;-1.90;100.00;101024.43;1816912;77;21569;-57
2022/12/20 07:25:58;;;;;;;8.83;8.03;;;;;;;-1.83;100.00;101023.79;1765444;79;21428;-57
2022/12/20 07:28:25;;;;;;;5.37;4.55;;;;;;;-1.81;100.00;101026.89;1777209;77;21526;-61
2022/12/20 07:30:52;;;;;;;7.95;6.85;;;;;;;-1.75;100.00;101012.02;1804317;77;21534;-59
2022/12/20 07:33:20;;;;;;;7.83;4.75;;;;;;;-1.65;100.00;101008.86;1821047;76;21976;-59
2022/12/20 07:35:47;;;;;;;5.35;4.55;;;;;;;-1.59;100.00;101008.16;1793495;77;21510;-59
2022/12/20 07:38:13;;;;;;;28.42;25.62;;;;;;;-1.54;100.00;101011.75;1812252;77;21613;-58
2022/12/20 07:40:41;;;;;;;26.27;16.27;;;;;;;-1.55;100.00;101012.56;1812003;77;21563;-57
2022/12/20 07:43:09;;;;;;;13.40;9.90;;;;;;;-1.52;100.00;101014.38;1815673;77;21073;-57
2022/12/20 07:45:39;;;;;;;10.72;7.70;;;;;;;-1.42;100.00;101024.98;1800349;77;21425;-57
2022/12/20 07:48:05;;;;;;;9.98;8.98;;;;;;;-1.32;100.00;101028.69;1817087;77;21547;-57
2022/12/20 07:50:32;;;;;;;42.27;20.02;;;;;;;-1.23;100.00;101021.20;1754662;79;21511;-57
2022/12/20 07:52:59;;;;;;;28.98;13.83;;;;;;;-1.20;100.00;101028.17;1800695;77;21580;-59
2022/12/20 07:55:26;;;;;;;21.90;12.60;;;;;;;-1.11;100.00;101026.23;1819023;76;21539;-58
2022/12/20 07:57:56;;;;;;;50.98;23.98;;;;;;;-1.07;100.00;101032.83;1795928;76;22092;-57
2022/12/20 08:00:22;;;;;;;50.15;22.15;;;;;;;-1.00;100.00;101034.74;1795448;76;21473;-66
2022/12/20 08:03:03;;;;;;;52.05;23.45;;;;;;;-0.96;100.00;101036.99;1811343;76;21534;-59
2022/12/20 08:06:29;;;;;;;54.20;27.65;;;;;;;-0.75;100.00;101038.36;1845860;76;26385;-58
2022/12/20 08:08:58;;;;;;;61.23;26.42;;;;;;;-0.81;100.00;101027.05;1820488;78;21422;-59
2022/12/20 08:11:24;;;;;;;43.92;19.15;;;;;;;-0.70;100.00;101014.39;1819590;77;21814;-59
2022/12/20 08:13:52;;;;;;;31.45;14.75;;;;;;;-0.61;100.00;101001.70;1770432;80;21549;-59
2022/12/20 08:16:18;;;;;;;41.45;20.40;;;;;;;-0.57;100.00;100991.03;1800185;77;21674;-62
2022/12/20 08:18:45;;;;;;;71.42;30.80;;;;;;;-0.53;100.00;100997.14;1819363;77;20986;-60
2022/12/20 08:21:13;;;;;;;49.90;22.60;;;;;;;-0.53;100.00;101001.02;1812402;77;21509;-59
2022/12/20 08:23:40;;;;;;;31.62;14.83;;;;;;;-0.56;100.00;100999.67;1816948;77;21803;-58
2022/12/20 08:26:07;;;;;;;24.87;12.47;;;;;;;-0.53;100.00;100999.30;1821248;77;21036;-59
2022/12/20 08:28:33;;;;;;;14.63;7.93;;;;;;;-0.49;100.00;100996.37;1759781;80;21022;-58
2022/12/20 08:31:05;;;;;;;20.83;12.77;;;;;;;-0.49;100.00;100996.37;1810882;77;21406;-59
2022/12/20 08:33:33;;;;;;;12.05;9.08;;;;;;;-0.48;100.00;100995.55;1810671;77;21612;-59
2022/12/20 08:36:02;;;;;;;52.17;23.95;;;;;;;-0.43;100.00;100993.53;1808900;78;21758;-59
2022/12/20 08:38:30;;;;;;;55.20;25.10;;;;;;;-0.34;100.00;100996.77;1802803;78;21414;-58
2022/12/20 08:41:04;;;;;;;29.37;14.78;;;;;;;-0.30;100.00;100993.41;1763538;80;21473;-58
2022/12/20 08:43:32;;;;;;;43.48;19.12;;;;;;;-0.29;100.00;100993.84;1816791;77;21617;-60
2022/12/20 08:45:58;;;;;;;;;;;;;;;-0.25;100.00;100987.03;1826514;78;21411;-60
2022/12/20 08:48:25;;;;;;;28.07;16.12;;;;;;;-0.29;100.00;100990.39;1815633;76;21920;-59
2022/12/20 08:50:59;;;;;;;24.17;15.40;;;;;;;-0.18;100.00;100986.34;1820828;77;21574;-60
2022/12/20 08:53:26;;;;;;;23.30;14.60;;;;;;;-0.19;100.00;100991.04;1803371;77;21906;-60
2022/12/20 08:55:53;;;;;;;24.70;13.48;;;;;;;-0.10;100.00;100987.80;1818920;77;21133;-59
2022/12/20 08:58:20;;;;;;;10.70;7.15;;;;;;;-0.06;100.00;100971.51;1811829;77;21576;-59
2022/12/20 09:00:46;;;;;;;19.30;9.97;;;;;;;-0.02;100.00;100966.84;1810519;77;22046;-59
2022/12/20 09:03:14;;;;;;;16.85;9.70;;;;;;;0.05;100.00;100962.70;1817056;76;21741;-60
2022/12/20 09:05:44;;;;;;;22.73;12.28;;;;;;;0.07;100.00;100954.55;1740655;80;21536;-59
2022/12/20 09:08:11;;;;;;;14.83;8.68;;;;;;;0.08;100.00;100951.13;1763598;79;21005;-59
2022/12/20 09:10:38;;;;;;;7.30;5.33;;;;;;;0.14;100.00;100947.38;1737841;79;21084;-59
2022/12/20 09:13:04;;;;;;;6.42;4.05;;;;;;;0.19;100.00;100947.05;1755027;79;21891;-59
2022/12/20 09:15:33;;;;;;;6.37;4.58;;;;;;;0.23;100.00;100944.98;1798266;77;20997;-59
2022/12/20 09:18:00;;;;;;;5.70;3.95;;;;;;;0.33;100.00;100951.20;1786182;78;21597;-59
2022/12/20 09:20:27;;;;;;;4.07;3.47;;;;;;;0.38;100.00;100940.09;1811659;77;21616;-59
2022/12/20 09:22:54;;;;;;;5.28;3.22;;;;;;;0.47;100.00;100947.58;1729862;80;21532;-59
2022/12/20 09:25:21;;;;;;;5.83;3.90;;;;;;;0.49;100.00;100935.53;1749721;79;21771;-59
2022/12/20 09:27:48;;;;;;;5.25;3.58;;;;;;;0.49;100.00;100927.77;1745767;80;21506;-60
2022/12/20 09:30:16;;;;;;;4.42;4.03;;;;;;;0.52;100.00;100938.19;1810374;77;21470;-59
2022/12/20 09:32:43;;;;;;;6.10;3.42;;;;;;;0.43;100.00;100937.58;1816421;76;21554;-59
2022/12/20 09:35:09;;;;;;;4.30;3.50;;;;;;;0.47;100.00;100931.65;1807178;78;21632;-60
2022/12/20 09:37:36;;;;;;;3.95;3.55;;;;;;;0.51;100.00;100924.78;1815829;78;21871;-59
2022/12/20 09:40:04;;;;;;;4.00;3.42;;;;;;;0.58;100.00;100916.30;1804523;77;21544;-59
2022/12/20 09:42:31;;;;;;;5.72;3.70;;;;;;;0.58;100.00;100902.95;1814417;78;21553;-59
2022/12/20 09:45:26;;;;;;;8.37;5.23;;;;;;;0.60;100.00;100896.91;1815336;78;21659;-59
2022/12/20 09:47:53;;;;;;;7.25;4.72;;;;;;;0.57;100.00;100890.84;1699829;81;21562;-59
2022/12/20 09:50:23;;;;;;;5.40;3.87;;;;;;;0.59;100.00;100885.70;1692485;82;21772;-59
2022/12/20 09:53:05;;;;;;;4.67;3.40;;;;;;;0.57;100.00;100875.31;1690643;82;21471;-58
2022/12/20 09:55:55;;;;;;;3.35;2.62;;;;;;;0.44;100.00;100869.47;1696894;82;21545;-58
2022/12/20 09:59:09;;;;;;;4.90;3.45;;;;;;;0.51;100.00;100859.69;1691636;82;21534;-60
2022/12/20 10:01:35;;;;;;;7.65;4.35;;;;;;;0.49;100.00;100861.78;1690583;81;21598;-57
2022/12/20 10:04:10;;;;;;;6.87;5.10;;;;;;;0.47;100.00;100849.23;1690999;82;21833;-57
2022/12/20 10:07:13;;;;;;;4.75;3.90;;;;;;;0.45;100.00;100840.14;1682544;82;21636;-59
2022/12/20 10:10:27;;;;;;;4.60;3.60;;;;;;;0.48;100.00;100844.09;1686978;81;21565;-61
2022/12/20 10:13:26;;;;;;;4.85;3.67;;;;;;;0.47;100.00;100824.66;1684248;83;21474;-62
2022/12/20 10:16:15;;;;;;;4.15;3.35;;;;;;;0.44;100.00;100829.36;1697991;81;21497;-57
2022/12/20 10:19:05;;;;;;;4.83;2.77;;;;;;;0.41;100.00;100815.06;1696583;82;21929;-58
2022/12/20 13:42:18;;;;;;;14.58;7.08;;;;;;;-1.16;100.00;100613.58;1772580;78;23833;-56
2022/12/20 13:44:45;;;;;;;19.30;8.43;;;;;;;-0.82;100.00;100611.23;1747576;80;21538;-55
2022/12/20 13:47:26;;;;;;;19.30;9.58;;;;;;;-0.58;100.00;100600.48;1732439;80;21494;-57
2022/12/20 13:49:52;;;;;;;15.28;8.78;;;;;;;-0.43;100.00;100598.17;1746236;80;21487;-57
2022/12/20 13:52:31;;;;;;;14.40;8.00;;;;;;;-0.34;100.00;100586.23;1734760;80;21471;-58
2022/12/20 13:55:03;;;;;;;13.25;6.65;;;;;;;-0.24;100.00;100579.09;1738846;80;21648;-57
2022/12/20 13:57:42;;;;;;;19.17;9.18;;;;;;;-0.14;100.00;100576.23;1739120;80;21042;-57
2022/12/20 14:00:19;;;;;;;37.75;13.15;;;;;;;-0.10;100.00;100566.37;1731208;80;21836;-58
2022/12/20 14:02:45;;;;;;;44.45;13.98;;;;;;;-0.04;100.00;100571.63;1719068;80;21604;-56
2022/12/20 14:05:25;;;;;;;31.45;12.50;;;;;;;-0.01;100.00;100566.09;1741182;80;21541;-54
2022/12/20 14:08:06;;;;;;;26.55;11.05;;;;;;;0.06;100.00;100559.70;1742086;80;21584;-55
2022/12/20 14:10:34;;;;;;;15.60;7.87;;;;;;;0.11;100.00;100564.09;1742566;80;21049;-55
2022/12/20 14:13:00;;;;;;;;;;;;;;;0.08;100.00;100564.07;1742405;80;21767;-55
2022/12/20 14:15:30;;;;;;;9.03;5.17;;;;;;;0.05;100.00;100556.69;1744347;80;20239;-55
2022/12/20 14:18:05;;;;;;;13.03;5.05;;;;;;;0.15;100.00;100557.25;1738117;80;21608;-55
2022/12/20 14:20:35;;;;;;;7.22;5.03;;;;;;;0.16;100.00;100552.11;1711874;80;21449;-55
2022/12/20 14:23:11;;;;;;;8.35;4.92;;;;;;;0.19;100.00;100540.95;1745167;80;21010;-55
2022/12/20 14:25:55;;;;;;;11.25;6.78;;;;;;;0.24;100.00;100516.43;1738316;80;21825;-55
2022/12/20 14:28:35;;;;;;;12.35;7.15;;;;;;;0.27;100.00;100507.43;1745696;80;20946;-55
2022/12/20 14:31:02;;;;;;;12.35;8.55;;;;;;;0.29;100.00;100534.19;1737462;80;21534;-55
2022/12/20 14:36:19;;;;;;;11.35;8.05;;;;;;;-0.12;100.00;100546.95;1784892;78;23141;-60
2022/12/20 14:38:49;;;;;;;17.87;8.10;;;;;;;0.15;100.00;100532.28;1765201;79;20993;-60
2022/12/20 14:41:37;;;;;;;13.25;6.50;;;;;;;0.25;100.00;100537.15;1756521;80;22066;-59
2022/12/20 14:44:19;;;;;;;8.78;5.60;;;;;;;0.28;100.00;100535.87;1766486;80;21451;-58
2022/12/20 14:46:53;;;;;;;6.60;4.97;;;;;;;0.30;100.00;100528.14;1762814;80;21001;-57
2022/12/20 14:49:33;;;;;;;7.08;4.80;;;;;;;0.34;100.00;100526.92;1759280;80;21624;-57
2022/12/20 14:52:14;;;;;;;7.35;5.17;;;;;;;0.34;100.00;100527.33;1759718;80;21640;-57
2022/12/20 14:54:57;;;;;;;8.75;5.20;;;;;;;0.33;100.00;100528.19;1774993;80;21908;-57
2022/12/20 14:57:39;;;;;;;8.30;5.28;;;;;;;0.37;100.00;100521.77;1761355;80;21502;-59
2022/12/20 15:00:23;;;;;;;11.40;7.08;;;;;;;0.39;100.00;100518.77;1752738;80;21561;-58
2022/12/20 15:03:17;;;;;;;9.33;6.40;;;;;;;0.39;100.00;100523.95;1772596;80;21561;-58
2022/12/20 15:05:49;;;;;;;11.00;7.37;;;;;;;0.35;100.00;100511.83;1768070;80;21429;-58
2022/12/20 15:08:32;;;;;;;8.08;6.05;;;;;;;0.43;100.00;100507.18;1754484;80;22127;-57
2022/12/20 15:11:14;;;;;;;9.58;5.60;;;;;;;0.44;100.00;100505.05;1762540;80;21449;-57
2022/12/20 15:13:50;;;;;;;7.85;5.25;;;;;;;0.43;100.00;100495.11;1767891;80;21562;-57
2022/12/20 15:16:21;;;;;;;8.80;6.05;;;;;;;0.40;100.00;100496.38;1768376;80;21483;-57
2022/12/20 15:18:58;;;;;;;9.38;5.75;;;;;;;0.42;100.00;100485.63;1751437;80;21520;-59
2022/12/20 15:21:33;;;;;;;11.05;6.33;;;;;;;0.48;100.00;100487.41;1769155;80;21899;-58
2022/12/20 15:24:01;;;;;;;10.32;6.58;;;;;;;0.50;100.00;100483.12;1756857;80;21497;-58
2022/12/20 15:26:28;;;;;;;8.40;5.83;;;;;;;0.50;100.00;100485.71;1755473;80;21633;-58
2022/12/20 15:28:54;;;;;;;8.08;4.75;;;;;;;0.51;100.00;100468.02;1762035;80;21664;-57
2022/12/20 15:31:23;;;;;;;7.45;4.78;;;;;;;0.54;100.00;100469.36;1773409;79;21497;-57
2022/12/20 15:33:50;;;;;;;7.95;5.03;;;;;;;0.50;100.00;100469.75;1765062;80;21954;-57
2022/12/20 15:36:19;;;;;;;8.15;5.42;;;;;;;0.49;100.00;100474.90;1771185;80;21557;-58
2022/12/20 15:38:46;;;;;;;15.00;6.90;;;;;;;0.52;100.00;100484.01;1753685;80;21482;-58
2022/12/20 15:41:23;;;;;;;12.78;7.75;;;;;;;0.50;100.00;100499.94;1754575;80;21116;-57
2022/12/20 15:43:58;;;;;;;13.03;7.90;;;;;;;0.51;100.00;100496.09;1757983;80;21527;-62
2022/12/20 15:46:26;;;;;;;10.15;6.25;;;;;;;0.55;100.00;100511.23;1749780;80;21926;-56
2022/12/20 15:48:53;;;;;;;8.35;5.25;;;;;;;0.55;100.00;100500.44;1748973;80;21470;-58
2022/12/20 15:51:33;;;;;;;12.07;6.70;;;;;;;0.55;100.00;100504.32;1746535;80;21061;-56
2022/12/20 15:54:02;;;;;;;12.07;6.90;;;;;;;0.57;100.00;100505.64;1756027;80;21511;-59
2022/12/20 15:56:29;;;;;;;9.08;6.45;;;;;;;0.55;100.00;100501.73;1763158;80;21487;-59
2022/12/20 15:58:56;;;;;;;10.58;6.80;;;;;;;0.60;100.00;100513.42;1755671;79;21851;-59
2022/12/20 16:01:35;;;;;;;10.72;7.03;;;;;;;0.61;100.00;100513.88;1761415;78;21510;-59
2022/12/20 16:04:03;;;;;;;11.93;6.75;;;;;;;0.60;100.00;100516.01;1767851;80;21427;-58
2022/12/20 16:06:31;;;;;;;12.53;6.72;;;;;;;0.57;100.00;100510.38;1752517;80;21506;-58
